createdAt,value
2019-05-16T00:00:00.470Z,30.44
2019-05-16T00:00:29.034Z,30.88
2019-05-16T00:00:53.076Z,30.45
2019-05-16T00:01:19.305Z,30.52
2019-05-16T00:01:44.818Z,30.28
2019-05-16T00:02:10.014Z,30.54
2019-05-16T00:03:08.028Z,30.17
2019-05-16T00:03:33.568Z,30.32
2019-05-16T00:03:58.727Z,30.35
2019-05-16T00:04:23.934Z,30.38
2019-05-16T00:04:48.571Z,30.44
2019-05-16T00:05:13.756Z,30.38
2019-05-16T00:05:50.883Z,30.59
2019-05-16T00:06:05.860Z,30.64
2019-05-16T00:06:30.759Z,30.75
2019-05-16T00:06:55.976Z,30.70
2019-05-16T00:07:21.176Z,30.75
2019-05-16T00:07:48.980Z,30.67
2019-05-16T00:08:13.215Z,30.61
2019-05-16T00:08:38.881Z,30.73
2019-05-16T00:09:05.246Z,30.79
2019-05-16T00:09:30.445Z,30.65
2019-05-16T00:09:55.067Z,30.56
2019-05-16T00:10:20.232Z,30.44
2019-05-16T00:10:48.581Z,30.74
2019-05-16T00:11:13.065Z,30.53
2019-05-16T00:11:38.397Z,30.58
2019-05-16T00:12:04.261Z,30.52
2019-05-16T00:12:29.436Z,30.52
2019-05-16T00:12:54.615Z,30.63
2019-05-16T00:13:19.322Z,30.60
2019-05-16T00:13:44.502Z,30.60
2019-05-16T00:14:09.671Z,30.92
2019-05-16T00:14:34.858Z,30.55
2019-05-16T00:15:00.090Z,30.59
2019-05-16T00:15:24.774Z,30.55
2019-05-16T00:15:50.042Z,30.71
2019-05-16T00:16:15.261Z,30.46
2019-05-16T00:16:40.467Z,30.80
2019-05-16T00:17:08.195Z,30.46
2019-05-16T00:17:32.070Z,30.78
2019-05-16T00:17:58.287Z,30.51
2019-05-16T00:18:23.891Z,30.82
2019-05-16T00:18:49.118Z,30.79
2019-05-16T00:19:14.368Z,30.95
2019-05-16T00:19:39.518Z,30.84
2019-05-16T00:20:09.215Z,30.82
2019-05-16T00:20:34.777Z,30.94
2019-05-16T00:20:59.406Z,30.79
2019-05-16T00:21:24.653Z,30.84
2019-05-16T00:21:49.840Z,30.96
2019-05-16T00:22:15.066Z,30.98
2019-05-16T00:22:40.254Z,31.03
2019-05-16T00:23:04.868Z,31.11
2019-05-16T00:23:30.056Z,30.84
2019-05-16T00:23:55.302Z,30.98
2019-05-16T00:24:20.519Z,30.89
2019-05-16T00:24:45.710Z,30.95
2019-05-16T00:25:10.329Z,31.11
2019-05-16T00:25:35.500Z,31.05
2019-05-16T00:26:00.928Z,30.90
2019-05-16T00:26:28.191Z,30.92
2019-05-16T00:26:52.560Z,31.34
2019-05-16T00:27:18.590Z,30.74
2019-05-16T00:27:43.980Z,30.67
2019-05-16T00:28:09.154Z,30.84
2019-05-16T00:28:33.804Z,30.56
2019-05-16T00:28:59.065Z,30.76
2019-05-16T00:29:24.268Z,30.76
2019-05-16T00:29:49.462Z,30.95
2019-05-16T00:30:14.484Z,30.92
2019-05-16T00:30:39.662Z,30.92
2019-05-16T00:31:04.831Z,31.09
2019-05-16T00:31:30.037Z,31.18
2019-05-16T00:31:55.236Z,30.88
2019-05-16T00:32:19.876Z,30.95
2019-05-16T00:32:45.074Z,30.77
2019-05-16T00:33:10.278Z,31.15
2019-05-16T00:33:35.484Z,30.87
2019-05-16T00:34:00.652Z,30.82
2019-05-16T00:34:25.286Z,30.84
2019-05-16T00:34:50.459Z,31.17
2019-05-16T00:35:18.047Z,31.05
2019-05-16T00:35:42.570Z,31.10
2019-05-16T00:36:09.159Z,31.03
2019-05-16T00:36:34.158Z,31.08
2019-05-16T00:36:59.094Z,30.99
2019-05-16T00:37:24.331Z,31.07
2019-05-16T00:37:48.961Z,31.32
2019-05-16T00:38:14.980Z,31.18
2019-05-16T00:38:40.170Z,31.10
2019-05-16T00:39:08.225Z,31.02
2019-05-16T00:39:32.610Z,31.01
2019-05-16T00:39:58.807Z,30.94
2019-05-16T00:40:24.292Z,31.27
2019-05-16T00:40:49.443Z,31.10
2019-05-16T00:41:14.430Z,31.44
2019-05-16T00:41:39.908Z,31.11
2019-05-16T00:42:05.090Z,31.16
2019-05-16T00:42:30.341Z,31.10
2019-05-16T00:42:55.501Z,31.29
2019-05-16T00:43:20.174Z,31.28
2019-05-16T00:43:45.443Z,31.08
2019-05-16T00:44:10.640Z,30.97
2019-05-16T00:44:35.817Z,31.32
2019-05-16T00:45:01.210Z,31.21
2019-05-16T00:45:29.139Z,31.31
2019-05-16T00:45:53.832Z,31.27
2019-05-16T00:46:20.104Z,31.10
2019-05-16T00:46:45.009Z,31.06
2019-05-16T00:47:10.199Z,31.51
2019-05-16T00:47:35.389Z,31.35
2019-05-16T00:48:00.587Z,31.09
2019-05-16T00:48:25.206Z,31.03
2019-05-16T00:48:50.383Z,31.27
2019-05-16T00:49:15.570Z,31.30
2019-05-16T00:49:40.766Z,31.39
2019-05-16T00:50:05.943Z,31.11
2019-05-16T00:50:30.543Z,31.35
2019-05-16T00:50:55.812Z,31.14
2019-05-16T00:51:21.006Z,31.10
2019-05-16T00:51:48.063Z,31.26
2019-05-16T00:52:12.491Z,31.21
2019-05-16T00:52:39.449Z,31.19
2019-05-16T00:53:04.826Z,31.03
2019-05-16T00:53:30.001Z,31.31
2019-05-16T00:53:54.650Z,31.51
2019-05-16T00:54:19.918Z,31.55
2019-05-16T00:54:45.093Z,31.42
2019-05-16T00:55:10.311Z,31.31
2019-05-16T00:55:35.529Z,31.30
2019-05-16T00:56:00.326Z,31.46
2019-05-16T00:56:26.063Z,31.40
2019-05-16T00:56:51.259Z,31.43
2019-05-16T00:57:18.789Z,31.49
2019-05-16T00:57:43.245Z,31.67
2019-05-16T00:58:08.931Z,31.41
2019-05-16T00:58:34.272Z,31.47
2019-05-16T00:58:59.853Z,31.57
2019-05-16T00:59:24.459Z,31.17
2019-05-16T00:59:49.948Z,31.31
2019-05-16T01:00:18.051Z,31.28
2019-05-16T01:00:50.506Z,31.49
2019-05-16T01:01:15.389Z,31.37
2019-05-16T01:01:40.597Z,31.51
2019-05-16T01:02:05.761Z,31.29
2019-05-16T01:02:30.991Z,31.68
2019-05-16T01:02:57.831Z,31.36
2019-05-16T01:03:22.612Z,31.23
2019-05-16T01:03:48.328Z,31.69
2019-05-16T01:04:15.141Z,31.48
2019-05-16T01:04:40.343Z,31.49
2019-05-16T01:05:08.271Z,31.46
2019-05-16T01:05:32.876Z,31.78
2019-05-16T01:05:58.313Z,31.57
2019-05-16T01:06:24.010Z,31.54
2019-05-16T01:06:48.658Z,31.46
2019-05-16T01:07:13.885Z,31.53
2019-05-16T01:07:39.403Z,31.55
2019-05-16T01:08:04.801Z,31.46
2019-05-16T01:08:30.405Z,31.56
2019-05-16T01:08:57.907Z,31.66
2019-05-16T01:09:22.657Z,31.45
2019-05-16T01:09:48.830Z,31.54
2019-05-16T01:10:14.572Z,31.73
2019-05-16T01:10:39.921Z,31.46
2019-05-16T01:11:05.178Z,31.70
2019-05-16T01:11:30.394Z,31.62
2019-05-16T01:11:57.825Z,31.72
2019-05-16T01:12:21.927Z,31.44
2019-05-16T01:12:48.064Z,31.69
2019-05-16T01:13:13.431Z,31.53
2019-05-16T01:13:38.607Z,31.92
2019-05-16T01:14:04.459Z,31.50
2019-05-16T01:14:29.640Z,31.72
2019-05-16T01:14:54.835Z,31.85
2019-05-16T01:15:20.994Z,31.47
2019-05-16T01:15:48.402Z,31.68
2019-05-16T01:16:13.129Z,31.69
2019-05-16T01:16:38.402Z,31.71
2019-05-16T01:17:03.551Z,31.84
2019-05-16T01:17:28.466Z,31.62
2019-05-16T01:17:54.309Z,31.81
2019-05-16T01:18:19.517Z,31.59
2019-05-16T01:18:44.880Z,31.45
2019-05-16T01:19:09.512Z,31.91
2019-05-16T01:19:34.705Z,31.65
2019-05-16T01:19:59.920Z,31.92
2019-05-16T01:20:25.110Z,31.86
2019-05-16T01:20:50.381Z,31.82
2019-05-16T01:21:15.175Z,31.94
2019-05-16T01:21:40.363Z,31.66
2019-05-16T01:22:05.531Z,31.85
2019-05-16T01:22:30.731Z,31.63
2019-05-16T01:22:58.158Z,31.44
2019-05-16T01:23:22.665Z,31.65
2019-05-16T01:23:48.314Z,31.72
2019-05-16T01:24:13.678Z,32.04
2019-05-16T01:24:41.504Z,32.01
2019-05-16T01:25:06.195Z,32.13
2019-05-16T01:25:31.390Z,31.71
2019-05-16T01:25:58.919Z,31.92
2019-05-16T01:26:24.207Z,31.68
2019-05-16T01:26:48.833Z,31.83
2019-05-16T01:27:15.951Z,31.75
2019-05-16T01:27:47.735Z,32.13
2019-05-16T01:28:13.009Z,31.93
2019-05-16T01:28:37.855Z,32.06
2019-05-16T01:29:03.153Z,32.01
2019-05-16T01:29:28.363Z,31.88
2019-05-16T01:29:53.693Z,32.12
2019-05-16T01:30:18.814Z,31.87
2019-05-16T01:30:44.247Z,31.67
2019-05-16T01:31:09.517Z,31.71
2019-05-16T01:31:34.749Z,31.82
2019-05-16T01:31:59.350Z,31.60
2019-05-16T01:32:24.792Z,31.89
2019-05-16T01:32:49.985Z,32.27
2019-05-16T01:33:15.181Z,31.91
2019-05-16T01:33:40.427Z,31.80
2019-05-16T01:34:07.649Z,32.20
2019-05-16T01:34:32.239Z,31.88
2019-05-16T01:34:58.898Z,32.01
2019-05-16T01:35:24.320Z,32.12
2019-05-16T01:35:49.001Z,32.29
2019-05-16T01:36:15.358Z,31.79
2019-05-16T01:36:40.948Z,32.02
2019-05-16T01:37:08.315Z,32.22
2019-05-16T01:37:32.756Z,32.08
2019-05-16T01:37:58.158Z,32.14
2019-05-16T01:38:23.397Z,32.14
2019-05-16T01:38:48.664Z,32.12
2019-05-16T01:39:13.269Z,32.34
2019-05-16T01:39:38.441Z,32.15
2019-05-16T01:40:03.635Z,32.33
2019-05-16T01:40:28.812Z,32.31
2019-05-16T01:40:54.091Z,32.33
2019-05-16T01:41:18.837Z,32.26
2019-05-16T01:41:44.015Z,32.23
2019-05-16T01:42:09.194Z,32.13
2019-05-16T01:42:34.374Z,32.44
2019-05-16T01:42:59.541Z,32.15
2019-05-16T01:43:24.159Z,32.21
2019-05-16T01:43:49.388Z,32.04
2019-05-16T01:44:15.191Z,32.08
2019-05-16T01:44:40.383Z,32.17
2019-05-16T01:45:08.226Z,32.08
2019-05-16T01:45:33.224Z,32.32
2019-05-16T01:45:58.639Z,32.46
2019-05-16T01:46:23.864Z,32.29
2019-05-16T01:46:48.573Z,32.15
2019-05-16T01:47:13.751Z,32.46
2019-05-16T01:47:39.513Z,32.39
2019-05-16T01:48:04.809Z,32.24
2019-05-16T01:48:30.196Z,32.24
2019-05-16T01:48:57.797Z,32.20
2019-05-16T01:49:23.246Z,32.28
2019-05-16T01:49:48.941Z,32.32
2019-05-16T01:50:17.868Z,32.46
2019-05-16T01:50:42.486Z,32.38
2019-05-16T01:51:07.875Z,32.45
2019-05-16T01:51:33.407Z,32.07
2019-05-16T01:51:58.039Z,32.32
2019-05-16T01:52:23.216Z,32.54
2019-05-16T01:52:48.881Z,32.43
2019-05-16T01:53:17.663Z,32.27
2019-05-16T01:53:41.573Z,32.15
2019-05-16T01:54:08.654Z,32.34
2019-05-16T01:54:33.736Z,32.21
2019-05-16T01:54:59.269Z,32.10
2019-05-16T01:55:23.893Z,32.40
2019-05-16T01:55:49.151Z,32.25
2019-05-16T01:56:15.279Z,32.16
2019-05-16T01:56:40.479Z,32.40
2019-05-16T01:57:05.159Z,32.35
2019-05-16T01:57:30.360Z,31.97
2019-05-16T01:57:55.567Z,32.19
2019-05-16T01:58:20.793Z,32.19
2019-05-16T01:58:45.952Z,32.21
2019-05-16T01:59:10.639Z,32.45
2019-05-16T01:59:37.922Z,32.32
2019-05-16T02:00:02.708Z,32.19
2019-05-16T02:00:35.709Z,32.30
2019-05-16T02:01:06.037Z,32.13
2019-05-16T02:01:21.145Z,32.26
2019-05-16T02:01:48.265Z,32.21
2019-05-16T02:02:14.395Z,32.12
2019-05-16T02:02:40.872Z,32.35
2019-05-16T02:03:08.099Z,32.23
2019-05-16T02:03:32.978Z,32.04
2019-05-16T02:03:58.717Z,32.15
2019-05-16T02:04:24.258Z,32.12
2019-05-16T02:04:49.428Z,32.11
2019-05-16T02:05:14.598Z,32.34
2019-05-16T02:05:39.851Z,32.19
2019-05-16T02:06:05.178Z,31.96
2019-05-16T02:06:29.831Z,32.36
2019-05-16T02:06:55.243Z,32.36
2019-05-16T02:07:20.454Z,32.47
2019-05-16T02:07:47.871Z,32.36
2019-05-16T02:08:11.970Z,32.26
2019-05-16T02:08:38.021Z,32.09
2019-05-16T02:09:04.348Z,32.09
2019-05-16T02:09:30.298Z,32.16
2019-05-16T02:09:54.882Z,32.23
2019-05-16T02:10:20.083Z,32.25
2019-05-16T02:10:47.670Z,32.32
2019-05-16T02:11:12.351Z,32.33
2019-05-16T02:11:38.821Z,32.33
2019-05-16T02:12:04.111Z,32.71
2019-05-16T02:12:29.292Z,32.27
2019-05-16T02:12:54.466Z,32.27
2019-05-16T02:13:19.662Z,32.30
2019-05-16T02:13:44.276Z,32.25
2019-05-16T02:14:09.620Z,32.26
2019-05-16T02:14:34.883Z,32.26
2019-05-16T02:15:00.061Z,32.36
2019-05-16T02:15:25.244Z,32.28
2019-05-16T02:15:49.896Z,32.36
2019-05-16T02:16:15.187Z,32.41
2019-05-16T02:16:40.334Z,32.24
2019-05-16T02:17:05.504Z,32.60
2019-05-16T02:17:30.676Z,32.30
2019-05-16T02:17:55.299Z,32.29
2019-05-16T02:18:20.482Z,32.46
2019-05-16T02:18:45.722Z,32.30
2019-05-16T02:19:10.937Z,32.55
2019-05-16T02:19:38.370Z,32.49
2019-05-16T02:20:02.467Z,32.24
2019-05-16T02:20:28.243Z,32.39
2019-05-16T02:20:53.620Z,32.28
2019-05-16T02:21:18.840Z,32.27
2019-05-16T02:21:43.468Z,32.20
2019-05-16T02:22:09.015Z,32.33
2019-05-16T02:22:34.312Z,32.17
2019-05-16T02:22:59.478Z,32.23
2019-05-16T02:23:24.770Z,32.19
2019-05-16T02:23:51.704Z,32.16
2019-05-16T02:24:18.252Z,32.37
2019-05-16T02:24:43.716Z,32.48
2019-05-16T02:25:09.102Z,32.30
2019-05-16T02:25:33.792Z,32.61
2019-05-16T02:25:59.086Z,32.32
2019-05-16T02:26:24.296Z,32.42
2019-05-16T02:26:52.505Z,32.42
2019-05-16T02:27:18.069Z,32.42
2019-05-16T02:27:42.698Z,32.45
2019-05-16T02:28:07.918Z,32.56
2019-05-16T02:28:39.779Z,32.32
2019-05-16T02:29:00.853Z,32.38
2019-05-16T02:29:26.344Z,32.30
2019-05-16T02:29:51.533Z,32.33
2019-05-16T02:30:16.713Z,32.25
2019-05-16T02:30:42.343Z,32.38
2019-05-16T02:31:07.589Z,32.71
2019-05-16T02:31:32.766Z,32.37
2019-05-16T02:32:01.575Z,32.39
2019-05-16T02:32:24.382Z,32.27
2019-05-16T02:32:52.317Z,32.54
2019-05-16T02:33:16.426Z,32.30
2019-05-16T02:33:41.625Z,32.59
2019-05-16T02:34:06.240Z,32.54
2019-05-16T02:34:31.404Z,32.43
2019-05-16T02:34:56.603Z,32.37
2019-05-16T02:35:21.851Z,32.51
2019-05-16T02:35:47.031Z,32.51
2019-05-16T02:36:11.662Z,32.37
2019-05-16T02:36:36.854Z,32.27
2019-05-16T02:37:18.410Z,32.55
2019-05-16T02:37:33.468Z,32.59
2019-05-16T02:37:55.581Z,32.55
2019-05-16T02:38:21.391Z,32.49
2019-05-16T02:38:46.803Z,32.50
2019-05-16T02:39:11.978Z,32.47
2019-05-16T02:39:36.608Z,32.60
2019-05-16T02:40:01.964Z,32.53
2019-05-16T02:40:27.351Z,32.65
2019-05-16T02:40:55.237Z,32.47
2019-05-16T02:41:21.582Z,32.65
2019-05-16T02:41:46.244Z,32.48
2019-05-16T02:42:12.250Z,32.22
2019-05-16T02:42:37.594Z,32.65
2019-05-16T02:43:02.304Z,32.54
2019-05-16T02:43:31.066Z,32.49
2019-05-16T02:43:54.577Z,32.49
2019-05-16T02:44:24.093Z,32.40
2019-05-16T02:44:46.100Z,32.48
2019-05-16T02:45:11.441Z,32.51
2019-05-16T02:45:36.852Z,32.53
2019-05-16T02:46:02.114Z,32.44
2019-05-16T02:46:26.728Z,32.40
2019-05-16T02:46:51.903Z,32.50
2019-05-16T02:47:17.087Z,32.56
2019-05-16T02:47:43.027Z,32.71
2019-05-16T02:48:10.799Z,32.49
2019-05-16T02:48:35.531Z,32.86
2019-05-16T02:49:01.065Z,32.55
2019-05-16T02:49:26.318Z,32.63
2019-05-16T02:49:50.955Z,32.68
2019-05-16T02:50:16.917Z,32.68
2019-05-16T02:50:42.121Z,32.54
2019-05-16T02:51:10.809Z,32.57
2019-05-16T02:51:33.689Z,32.54
2019-05-16T02:52:01.306Z,32.48
2019-05-16T02:52:25.842Z,32.54
2019-05-16T02:52:51.881Z,32.78
2019-05-16T02:53:16.738Z,32.55
2019-05-16T02:53:41.958Z,32.58
2019-05-16T02:54:10.733Z,32.63
2019-05-16T02:54:34.097Z,32.77
2019-05-16T02:55:00.852Z,32.70
2019-05-16T02:55:25.596Z,32.98
2019-05-16T02:55:51.678Z,32.64
2019-05-16T02:56:17.177Z,32.72
2019-05-16T02:56:42.095Z,32.76
2019-05-16T02:57:10.843Z,32.78
2019-05-16T02:57:34.286Z,32.76
2019-05-16T02:58:00.737Z,32.98
2019-05-16T02:58:25.865Z,32.87
2019-05-16T02:58:52.082Z,32.97
2019-05-16T02:59:20.370Z,32.79
2019-05-16T02:59:44.488Z,32.77
2019-05-16T03:00:12.101Z,32.76
2019-05-16T03:00:41.913Z,32.82
2019-05-16T03:01:05.365Z,32.86
2019-05-16T03:01:31.688Z,32.58
2019-05-16T03:01:56.666Z,32.58
2019-05-16T03:02:21.832Z,32.77
2019-05-16T03:02:47.038Z,32.66
2019-05-16T03:03:12.339Z,32.85
2019-05-16T03:03:40.204Z,32.64
2019-05-16T03:04:03.866Z,32.92
2019-05-16T03:04:30.595Z,32.84
2019-05-16T03:04:56.019Z,32.60
2019-05-16T03:05:21.233Z,32.81
2019-05-16T03:05:45.846Z,32.87
2019-05-16T03:06:11.623Z,32.71
2019-05-16T03:06:36.967Z,32.72
2019-05-16T03:07:02.269Z,32.75
2019-05-16T03:07:37.947Z,32.84
2019-05-16T03:07:53.833Z,32.61
2019-05-16T03:08:21.068Z,32.93
2019-05-16T03:08:47.045Z,32.61
2019-05-16T03:09:11.777Z,32.74
2019-05-16T03:09:37.161Z,32.66
2019-05-16T03:10:02.484Z,32.79
2019-05-16T03:10:30.943Z,32.73
2019-05-16T03:10:54.480Z,32.60
2019-05-16T03:11:21.154Z,32.69
2019-05-16T03:11:46.690Z,32.75
2019-05-16T03:12:11.899Z,32.76
2019-05-16T03:12:40.887Z,32.76
2019-05-16T03:13:05.351Z,32.73
2019-05-16T03:13:31.625Z,32.67
2019-05-16T03:13:56.798Z,32.96
2019-05-16T03:14:21.508Z,32.73
2019-05-16T03:14:47.348Z,32.91
2019-05-16T03:15:12.649Z,32.73
2019-05-16T03:15:40.748Z,32.86
2019-05-16T03:16:04.547Z,33.10
2019-05-16T03:16:31.597Z,32.92
2019-05-16T03:16:57.147Z,32.96
2019-05-16T03:17:22.336Z,32.95
2019-05-16T03:17:46.969Z,32.96
2019-05-16T03:18:12.137Z,33.05
2019-05-16T03:18:37.297Z,32.88
2019-05-16T03:19:04.569Z,32.95
2019-05-16T03:19:31.172Z,32.93
2019-05-16T03:19:56.791Z,32.94
2019-05-16T03:20:21.979Z,32.98
2019-05-16T03:20:47.154Z,32.83
2019-05-16T03:21:12.627Z,33.02
2019-05-16T03:21:37.926Z,32.92
2019-05-16T03:22:03.166Z,32.90
2019-05-16T03:22:31.251Z,32.85
2019-05-16T03:22:54.956Z,32.84
2019-05-16T03:23:21.820Z,32.81
2019-05-16T03:23:47.205Z,32.73
2019-05-16T03:24:12.389Z,32.89
2019-05-16T03:24:37.022Z,32.87
2019-05-16T03:25:02.181Z,33.11
2019-05-16T03:25:30.907Z,32.89
2019-05-16T03:25:55.615Z,32.67
2019-05-16T03:26:21.041Z,32.75
2019-05-16T03:26:46.439Z,32.82
2019-05-16T03:27:11.594Z,32.81
2019-05-16T03:27:36.771Z,32.70
2019-05-16T03:28:02.094Z,32.61
2019-05-16T03:28:30.498Z,32.90
2019-05-16T03:28:54.523Z,32.84
2019-05-16T03:29:21.884Z,32.85
2019-05-16T03:29:46.117Z,32.69
2019-05-16T03:30:15.740Z,32.68
2019-05-16T03:30:43.819Z,32.68
2019-05-16T03:31:06.249Z,32.73
2019-05-16T03:31:34.027Z,32.72
2019-05-16T03:32:02.534Z,32.81
2019-05-16T03:32:24.938Z,32.89
2019-05-16T03:32:54.693Z,32.89
2019-05-16T03:33:23.881Z,32.93
2019-05-16T03:33:56.254Z,32.92
2019-05-16T03:34:15.943Z,33.06
2019-05-16T03:34:37.175Z,32.85
2019-05-16T03:35:05.239Z,32.98
2019-05-16T03:35:33.439Z,32.90
2019-05-16T03:35:56.091Z,32.90
2019-05-16T03:36:25.126Z,32.88
2019-05-16T03:36:53.711Z,32.92
2019-05-16T03:37:15.211Z,33.00
2019-05-16T03:37:54.005Z,33.03
2019-05-16T03:38:07.409Z,32.88
2019-05-16T03:38:32.026Z,32.98
2019-05-16T03:38:57.248Z,32.71
2019-05-16T03:39:22.452Z,33.07
2019-05-16T03:39:47.639Z,33.18
2019-05-16T03:40:26.728Z,33.09
2019-05-16T03:40:51.891Z,33.24
2019-05-16T03:41:17.115Z,33.01
2019-05-16T03:41:42.299Z,33.01
2019-05-16T03:42:07.459Z,33.04
2019-05-16T03:42:32.146Z,33.08
2019-05-16T03:42:57.431Z,33.22
2019-05-16T03:43:22.578Z,32.94
2019-05-16T03:43:50.496Z,33.04
2019-05-16T03:44:14.260Z,33.08
2019-05-16T03:44:41.100Z,32.98
2019-05-16T03:45:06.539Z,33.12
2019-05-16T03:45:32.345Z,32.95
2019-05-16T03:45:57.165Z,33.02
2019-05-16T03:46:22.375Z,33.13
2019-05-16T03:46:47.644Z,32.89
2019-05-16T03:47:12.802Z,32.80
2019-05-16T03:47:37.447Z,32.93
2019-05-16T03:48:03.316Z,32.79
2019-05-16T03:48:31.432Z,33.03
2019-05-16T03:48:55.681Z,32.85
2019-05-16T03:49:21.184Z,32.74
2019-05-16T03:49:46.572Z,33.09
2019-05-16T03:50:11.746Z,32.92
2019-05-16T03:50:36.929Z,33.19
2019-05-16T03:51:01.558Z,33.00
2019-05-16T03:51:26.717Z,32.95
2019-05-16T03:51:51.910Z,32.98
2019-05-16T03:52:17.088Z,32.87
2019-05-16T03:52:43.583Z,32.92
2019-05-16T03:53:11.559Z,32.93
2019-05-16T03:53:35.691Z,32.91
2019-05-16T03:54:02.805Z,32.97
2019-05-16T03:54:27.785Z,32.91
2019-05-16T03:54:52.391Z,32.94
2019-05-16T03:55:21.332Z,32.84
2019-05-16T03:55:46.411Z,32.63
2019-05-16T03:56:11.675Z,32.84
2019-05-16T03:56:36.382Z,32.78
2019-05-16T03:57:01.624Z,33.07
2019-05-16T03:57:26.800Z,32.81
2019-05-16T03:57:52.115Z,32.74
2019-05-16T03:58:22.087Z,32.74
2019-05-16T03:58:43.671Z,33.19
2019-05-16T03:59:10.995Z,32.70
2019-05-16T03:59:35.741Z,33.03
2019-05-16T04:00:00.997Z,32.79
2019-05-16T04:00:54.091Z,32.84
2019-05-16T04:01:21.043Z,32.83
2019-05-16T04:01:46.463Z,32.73
2019-05-16T04:02:11.710Z,32.86
2019-05-16T04:02:36.327Z,32.75
2019-05-16T04:03:01.523Z,32.78
2019-05-16T04:03:28.961Z,32.79
2019-05-16T04:03:53.570Z,32.86
2019-05-16T04:04:20.817Z,32.76
2019-05-16T04:04:45.094Z,32.80
2019-05-16T04:05:11.100Z,32.90
2019-05-16T04:05:36.745Z,32.72
2019-05-16T04:06:01.654Z,32.87
2019-05-16T04:06:26.915Z,32.93
2019-05-16T04:06:52.077Z,32.86
2019-05-16T04:07:17.264Z,32.87
2019-05-16T04:07:42.477Z,32.75
2019-05-16T04:08:14.830Z,32.92
2019-05-16T04:08:34.139Z,33.02
2019-05-16T04:09:01.605Z,32.82
2019-05-16T04:09:26.192Z,32.99
2019-05-16T04:09:50.886Z,33.03
2019-05-16T04:10:16.084Z,32.67
2019-05-16T04:10:41.449Z,32.87
2019-05-16T04:11:06.612Z,33.13
2019-05-16T04:11:32.120Z,32.71
2019-05-16T04:11:57.637Z,33.00
2019-05-16T04:12:22.858Z,32.75
2019-05-16T04:12:48.048Z,32.91
2019-05-16T04:13:12.754Z,33.02
2019-05-16T04:13:40.981Z,32.85
2019-05-16T04:14:05.283Z,32.93
2019-05-16T04:14:31.096Z,32.85
2019-05-16T04:14:55.895Z,32.95
2019-05-16T04:15:21.575Z,33.09
2019-05-16T04:15:46.804Z,33.21
2019-05-16T04:16:13.492Z,33.15
2019-05-16T04:16:41.207Z,33.09
2019-05-16T04:17:05.432Z,33.11
2019-05-16T04:17:31.741Z,32.96
2019-05-16T04:17:57.221Z,32.92
2019-05-16T04:18:22.622Z,33.08
2019-05-16T04:18:51.149Z,33.06
2019-05-16T04:19:14.926Z,32.93
2019-05-16T04:19:41.590Z,32.92
2019-05-16T04:20:11.810Z,32.92
2019-05-16T04:20:36.824Z,33.02
2019-05-16T04:21:02.815Z,32.88
2019-05-16T04:21:31.956Z,32.90
2019-05-16T04:21:54.334Z,33.11
2019-05-16T04:22:21.484Z,33.29
2019-05-16T04:22:46.528Z,32.94
2019-05-16T04:23:11.713Z,33.45
2019-05-16T04:23:36.445Z,33.31
2019-05-16T04:24:01.626Z,33.07
2019-05-16T04:24:26.795Z,33.13
2019-05-16T04:24:52.394Z,33.03
2019-05-16T04:25:17.579Z,32.77
2019-05-16T04:25:42.255Z,32.84
2019-05-16T04:26:07.428Z,33.07
2019-05-16T04:26:35.890Z,33.11
2019-05-16T04:27:00.997Z,32.99
2019-05-16T04:27:25.894Z,32.71
2019-05-16T04:27:51.143Z,33.15
2019-05-16T04:28:16.312Z,33.02
2019-05-16T04:28:41.670Z,32.85
2019-05-16T04:29:06.319Z,33.05
2019-05-16T04:29:31.926Z,32.74
2019-05-16T04:30:01.192Z,32.83
2019-05-16T04:30:24.182Z,32.67
2019-05-16T04:30:50.761Z,32.66
2019-05-16T04:31:15.700Z,32.81
2019-05-16T04:31:41.431Z,32.76
2019-05-16T04:32:07.081Z,32.59
2019-05-16T04:32:31.791Z,32.93
2019-05-16T04:32:56.969Z,32.58
2019-05-16T04:33:22.807Z,32.51
2019-05-16T04:33:51.404Z,32.63
2019-05-16T04:34:14.485Z,32.59
2019-05-16T04:34:42.050Z,32.62
2019-05-16T04:35:07.307Z,32.42
2019-05-16T04:35:32.517Z,32.69
2019-05-16T04:35:57.126Z,32.43
2019-05-16T04:36:23.371Z,32.44
2019-05-16T04:36:51.559Z,32.45
2019-05-16T04:37:21.790Z,32.48
2019-05-16T04:37:44.843Z,32.53
2019-05-16T04:38:13.086Z,32.57
2019-05-16T04:38:45.014Z,32.46
2019-05-16T04:39:06.087Z,32.63
2019-05-16T04:39:31.908Z,32.33
2019-05-16T04:40:00.902Z,32.30
2019-05-16T04:40:24.594Z,32.28
2019-05-16T04:40:51.762Z,32.56
2019-05-16T04:41:16.165Z,32.36
2019-05-16T04:41:41.341Z,32.29
2019-05-16T04:42:06.514Z,32.57
2019-05-16T04:42:31.720Z,32.05
2019-05-16T04:42:56.349Z,32.27
2019-05-16T04:43:22.309Z,32.12
2019-05-16T04:43:50.463Z,32.13
2019-05-16T04:44:15.014Z,32.26
2019-05-16T04:44:41.706Z,32.24
2019-05-16T04:45:11.507Z,32.10
2019-05-16T04:45:35.064Z,32.27
2019-05-16T04:46:01.438Z,32.16
2019-05-16T04:46:26.305Z,32.22
2019-05-16T04:46:51.529Z,32.09
2019-05-16T04:47:16.711Z,31.96
2019-05-16T04:47:41.889Z,32.21
2019-05-16T04:48:07.057Z,32.02
2019-05-16T04:48:31.730Z,31.87
2019-05-16T04:48:56.938Z,31.86
2019-05-16T04:49:22.158Z,31.83
2019-05-16T04:49:47.340Z,31.91
2019-05-16T04:50:13.614Z,32.18
2019-05-16T04:50:41.770Z,31.90
2019-05-16T04:51:05.666Z,31.83
2019-05-16T04:51:30.913Z,31.74
2019-05-16T04:51:55.558Z,31.74
2019-05-16T04:52:21.922Z,32.19
2019-05-16T04:52:47.300Z,32.02
2019-05-16T04:53:12.461Z,31.69
2019-05-16T04:53:37.104Z,31.65
2019-05-16T04:54:06.763Z,31.96
2019-05-16T04:54:30.886Z,31.87
2019-05-16T04:54:56.270Z,31.68
2019-05-16T04:55:21.247Z,31.66
2019-05-16T04:55:46.597Z,31.72
2019-05-16T04:56:11.847Z,31.77
2019-05-16T04:56:40.991Z,31.80
2019-05-16T04:57:04.431Z,31.91
2019-05-16T04:57:31.309Z,32.07
2019-05-16T04:57:56.545Z,32.04
2019-05-16T04:58:23.784Z,31.92
2019-05-16T04:58:51.385Z,31.79
2019-05-16T04:59:16.833Z,31.83
2019-05-16T04:59:42.873Z,31.99
2019-05-16T05:00:11.278Z,31.84
2019-05-16T05:00:34.719Z,31.91
2019-05-16T05:01:01.513Z,31.83
2019-05-16T05:01:30.463Z,31.79
2019-05-16T05:01:55.476Z,31.78
2019-05-16T05:02:21.304Z,31.80
2019-05-16T05:02:46.742Z,31.95
2019-05-16T05:03:12.068Z,32.28
2019-05-16T05:03:40.663Z,31.85
2019-05-16T05:04:10.898Z,31.73
2019-05-16T05:04:30.925Z,32.13
2019-05-16T05:04:56.179Z,31.74
2019-05-16T05:05:21.762Z,31.65
2019-05-16T05:05:46.510Z,31.77
2019-05-16T05:06:11.676Z,31.74
2019-05-16T05:06:36.879Z,31.76
2019-05-16T05:07:02.628Z,31.89
2019-05-16T05:07:27.315Z,31.75
2019-05-16T05:07:52.631Z,31.69
2019-05-16T05:08:21.968Z,31.93
2019-05-16T05:08:54.009Z,31.82
2019-05-16T05:09:12.839Z,31.73
2019-05-16T05:09:40.595Z,31.79
2019-05-16T05:10:06.554Z,31.68
2019-05-16T05:10:31.739Z,31.93
2019-05-16T05:10:56.381Z,31.67
2019-05-16T05:11:21.855Z,31.69
2019-05-16T05:11:47.436Z,31.85
2019-05-16T05:12:12.671Z,31.51
2019-05-16T05:12:37.337Z,31.45
2019-05-16T05:13:02.557Z,31.73
2019-05-16T05:13:30.502Z,31.30
2019-05-16T05:13:54.623Z,31.56
2019-05-16T05:14:21.182Z,31.75
2019-05-16T05:14:46.136Z,31.76
2019-05-16T05:15:11.781Z,31.87
2019-05-16T05:15:40.066Z,31.87
2019-05-16T05:16:04.943Z,31.63
2019-05-16T05:16:30.661Z,31.86
2019-05-16T05:16:56.075Z,31.82
2019-05-16T05:17:21.283Z,31.93
2019-05-16T05:17:46.077Z,32.01
2019-05-16T05:18:11.323Z,31.77
2019-05-16T05:18:36.954Z,31.95
2019-05-16T05:19:02.356Z,31.99
2019-05-16T05:19:26.987Z,32.11
2019-05-16T05:19:52.194Z,31.82
2019-05-16T05:20:17.424Z,31.79
2019-05-16T05:20:42.573Z,31.92
2019-05-16T05:21:07.240Z,31.98
2019-05-16T05:21:32.408Z,31.76
2019-05-16T05:22:01.152Z,32.02
2019-05-16T05:22:24.517Z,31.80
2019-05-16T05:22:49.980Z,31.87
2019-05-16T05:23:15.303Z,32.00
2019-05-16T05:23:40.820Z,31.95
2019-05-16T05:24:06.092Z,32.01
2019-05-16T05:24:30.709Z,31.77
2019-05-16T05:24:55.971Z,31.88
2019-05-16T05:25:21.180Z,32.04
2019-05-16T05:25:46.351Z,31.65
2019-05-16T05:26:11.546Z,31.76
2019-05-16T05:26:36.184Z,31.75
2019-05-16T05:27:01.433Z,31.90
2019-05-16T05:27:26.936Z,31.57
2019-05-16T05:27:52.135Z,31.71
2019-05-16T05:28:17.323Z,31.90
2019-05-16T05:28:41.947Z,31.96
2019-05-16T05:29:07.133Z,31.57
2019-05-16T05:29:32.303Z,31.74
2019-05-16T05:29:57.459Z,32.02
2019-05-16T05:30:22.679Z,31.83
2019-05-16T05:30:47.309Z,31.92